Time;durP1;ratioP1;P1;durP2;ratioP2;P2;SDS_P1;SDS_P2;PMS_P1;PMS_P2;Temp;Humidity;BMP_temperature;BMP_pressure;BME280_temperature;BME280_humidity;BME280_pressure;Samples;Min_cycle;Max_cycle;Signal;HPM_P1;HPM_P2
2021/05/09 00:01:55;;;;;;;2.20;2.00;;;12.50;99.90;;;;;;5053327;28;20241;-58
2021/05/09 00:04:21;;;;;;;7.83;2.37;;;12.40;99.90;;;;;;5053611;28;20436;-59
2021/05/09 00:06:47;;;;;;;2.47;2.20;;;12.40;99.90;;;;;;5052084;28;20175;-57
2021/05/09 00:09:12;;;;;;;3.77;2.37;;;12.20;99.90;;;;;;5053348;28;20246;-58
2021/05/09 00:11:38;;;;;;;3.97;2.30;;;12.30;99.90;;;;;;5053135;28;20276;-56
2021/05/09 00:14:03;;;;;;;9.10;2.63;;;12.30;99.90;;;;;;5052957;28;20168;-60
2021/05/09 00:16:29;;;;;;;2.80;2.00;;;12.40;99.90;;;;;;5053146;28;20523;-59
2021/05/09 00:18:55;;;;;;;2.43;2.23;;;12.40;99.90;;;;;;5053231;28;20698;-60
2021/05/09 00:21:20;;;;;;;2.33;2.13;;;12.40;99.90;;;;;;5053128;28;20425;-60
2021/05/09 00:23:46;;;;;;;2.23;2.13;;;12.30;99.90;;;;;;5053333;28;20170;-60
2021/05/09 00:26:12;;;;;;;2.10;1.90;;;12.30;99.90;;;;;;5052692;28;20170;-59
2021/05/09 00:28:37;;;;;;;2.40;2.20;;;12.20;99.90;;;;;;5053058;28;20187;-57
2021/05/09 00:31:03;;;;;;;2.40;2.20;;;12.20;99.90;;;;;;5052716;28;20193;-59
2021/05/09 00:33:28;;;;;;;3.70;2.80;;;12.30;99.90;;;;;;5052961;28;20262;-59
2021/05/09 00:35:54;;;;;;;2.10;1.90;;;12.30;99.90;;;;;;5052961;28;20166;-59
2021/05/09 00:38:19;;;;;;;2.80;2.33;;;12.30;99.90;;;;;;5052892;28;20233;-59
2021/05/09 00:40:45;;;;;;;2.00;1.90;;;12.20;99.90;;;;;;5054168;28;20214;-59
2021/05/09 00:43:11;;;;;;;4.30;2.10;;;12.20;99.90;;;;;;5054517;28;20685;-59
2021/05/09 00:45:36;;;;;;;2.57;2.20;;;12.20;99.90;;;;;;5056986;28;20167;-56
2021/05/09 00:48:03;;;;;;;3.47;2.20;;;12.30;99.90;;;;;;5056917;28;20167;-59
2021/05/09 00:50:29;;;;;;;2.17;1.97;;;12.20;99.90;;;;;;5056721;28;20190;-59
2021/05/09 00:52:57;;;;;;;1.63;1.53;;;12.20;99.90;;;;;;5056803;28;20401;-59
2021/05/09 00:55:23;;;;;;;2.37;1.90;;;12.20;99.90;;;;;;5056594;28;20171;-58
2021/05/09 00:57:49;;;;;;;2.97;2.60;;;12.20;99.90;;;;;;5043439;28;20409;-59
2021/05/09 01:00:15;;;;;;;2.97;2.00;;;12.30;99.90;;;;;;5036466;28;20472;-60
2021/05/09 01:02:44;;;;;;;2.20;2.00;;;12.40;99.90;;;;;;5037074;28;20650;-58
2021/05/09 01:05:12;;;;;;;2.60;1.90;;;12.30;99.90;;;;;;5036649;28;20870;-58
2021/05/09 01:07:38;;;;;;;1.60;1.50;;;12.10;99.90;;;;;;5037003;28;20406;-57
2021/05/09 01:10:06;;;;;;;2.80;1.80;;;12.30;99.90;;;;;;5037149;28;20418;-59
2021/05/09 01:12:32;;;;;;;2.20;2.00;;;12.20;99.90;;;;;;5056193;28;20406;-59
2021/05/09 01:14:58;;;;;;;3.20;2.10;;;12.30;99.90;;;;;;5056591;28;20464;-57
2021/05/09 01:17:23;;;;;;;2.17;1.97;;;12.30;99.90;;;;;;5056649;28;20176;-55
2021/05/09 01:19:49;;;;;;;2.17;1.90;;;12.30;99.90;;;;;;5056298;28;20222;-59
2021/05/09 01:22:15;;;;;;;2.90;2.03;;;12.30;99.90;;;;;;5056207;28;20197;-60
2021/05/09 01:24:40;;;;;;;1.87;1.70;;;12.20;99.90;;;;;;5056273;28;20175;-60
2021/05/09 01:27:06;;;;;;;2.20;1.90;;;12.20;99.90;;;;;;5055982;28;20162;-60
2021/05/09 01:29:33;;;;;;;3.13;1.90;;;12.20;99.90;;;;;;5055927;28;20223;-60
2021/05/09 01:32:00;;;;;;;2.60;2.13;;;12.30;99.90;;;;;;5056062;28;20429;-60
2021/05/09 01:34:33;;;;;;;5.37;1.80;;;12.30;99.90;;;;;;5056025;28;20409;-60
2021/05/09 01:36:59;;;;;;;2.07;1.90;;;12.30;99.90;;;;;;5056323;28;20392;-60
2021/05/09 01:39:24;;;;;;;2.50;2.00;;;12.30;99.90;;;;;;5056121;28;20461;-60
2021/05/09 01:41:50;;;;;;;4.20;2.30;;;12.30;99.90;;;;;;5055437;28;20210;-60
2021/05/09 01:44:15;;;;;;;2.10;1.90;;;12.20;99.90;;;;;;5056131;28;20263;-60
2021/05/09 01:46:41;;;;;;;3.43;1.90;;;12.20;99.90;;;;;;5055814;28;20181;-60
2021/05/09 01:49:07;;;;;;;2.00;1.80;;;12.20;99.90;;;;;;5055402;28;20253;-60
2021/05/09 01:51:32;;;;;;;1.93;1.80;;;12.10;99.90;;;;;;5056250;28;20309;-58
2021/05/09 01:53:58;;;;;;;1.80;1.70;;;12.10;99.90;;;;;;5054844;28;20444;-58
2021/05/09 01:56:24;;;;;;;3.20;2.37;;;12.20;99.90;;;;;;5055293;28;20175;-60
2021/05/09 01:58:49;;;;;;;2.77;1.83;;;12.20;99.90;;;;;;5055799;28;20206;-59
2021/05/09 02:01:15;;;;;;;1.87;1.70;;;12.20;99.90;;;;;;5037470;28;20185;-60
2021/05/09 02:03:40;;;;;;;2.67;2.17;;;12.20;99.90;;;;;;5055750;28;20178;-60
2021/05/09 02:06:06;;;;;;;1.80;1.70;;;12.00;99.90;;;;;;5055513;28;20167;-60
2021/05/09 02:08:32;;;;;;;3.00;1.50;;;12.00;99.90;;;;;;5055364;28;20178;-59
2021/05/09 02:10:57;;;;;;;3.43;1.90;;;12.00;99.90;;;;;;5055306;28;20321;-59
2021/05/09 02:13:23;;;;;;;2.63;1.90;;;12.00;99.90;;;;;;5055041;28;20616;-57
2021/05/09 02:15:49;;;;;;;2.27;2.17;;;12.10;99.90;;;;;;5054977;28;20171;-58
2021/05/09 02:18:14;;;;;;;4.23;2.43;;;12.10;99.90;;;;;;5055408;28;20174;-59
2021/05/09 02:20:40;;;;;;;2.47;2.20;;;12.20;99.90;;;;;;5055145;28;20194;-59
2021/05/09 02:23:05;;;;;;;3.20;2.00;;;12.20;99.90;;;;;;5055536;28;20170;-59
2021/05/09 02:25:31;;;;;;;1.60;1.50;;;12.20;99.90;;;;;;5055415;28;20262;-58
2021/05/09 02:27:56;;;;;;;3.03;2.00;;;12.10;99.90;;;;;;5054877;28;20170;-56
2021/05/09 02:30:22;;;;;;;2.13;1.93;;;12.00;99.90;;;;;;5055879;28;20227;-58
2021/05/09 02:32:48;;;;;;;3.80;2.10;;;12.00;99.90;;;;;;5054938;28;20257;-57
2021/05/09 02:35:14;;;;;;;2.20;2.00;;;12.10;99.90;;;;;;5055162;28;20185;-59
2021/05/09 02:37:39;;;;;;;2.33;1.60;;;12.10;99.90;;;;;;5054883;28;20619;-57
2021/05/09 02:40:06;;;;;;;2.97;2.10;;;12.10;99.90;;;;;;5036653;28;20202;-59
2021/05/09 02:42:31;;;;;;;2.60;2.07;;;12.00;99.90;;;;;;5054823;28;20221;-59
2021/05/09 02:44:57;;;;;;;2.47;2.27;;;12.00;99.90;;;;;;5054562;28;20397;-59
2021/05/09 02:47:29;;;;;;;3.67;2.00;;;11.90;99.90;;;;;;5054731;28;20170;-57
2021/05/09 02:50:03;;;;;;;3.47;2.33;;;12.00;99.90;;;;;;5054916;28;20193;-59
2021/05/09 02:52:29;;;;;;;4.80;2.43;;;12.00;99.90;;;;;;5054538;28;20930;-57
2021/05/09 02:54:54;;;;;;;3.00;2.70;;;12.00;99.90;;;;;;5055132;28;20405;-59
2021/05/09 02:57:20;;;;;;;2.47;2.03;;;12.10;99.90;;;;;;5054427;28;20207;-59
2021/05/09 02:59:46;;;;;;;2.60;2.40;;;12.10;99.90;;;;;;5054189;28;20208;-59
2021/05/09 03:02:12;;;;;;;4.90;2.57;;;12.00;99.90;;;;;;5054347;28;20510;-59
2021/05/09 03:04:37;;;;;;;2.77;2.40;;;11.90;99.90;;;;;;5054469;28;20689;-59
2021/05/09 03:07:04;;;;;;;2.50;2.10;;;11.90;99.90;;;;;;5054568;28;20177;-58
2021/05/09 03:09:29;;;;;;;2.83;2.40;;;12.10;99.90;;;;;;5054523;28;20171;-55
2021/05/09 03:11:55;;;;;;;2.10;1.90;;;12.10;99.90;;;;;;5053860;28;20441;-59
2021/05/09 03:14:21;;;;;;;2.47;2.27;;;12.10;99.90;;;;;;5054181;28;20170;-59
2021/05/09 03:16:46;;;;;;;3.50;2.50;;;12.10;99.90;;;;;;5053982;28;20201;-59
2021/05/09 03:19:12;;;;;;;2.93;2.33;;;12.10;99.90;;;;;;5053993;28;20202;-58
2021/05/09 03:21:41;;;;;;;3.33;2.37;;;12.10;99.90;;;;;;5054058;28;20191;-59
2021/05/09 03:24:07;;;;;;;2.60;2.40;;;12.00;99.90;;;;;;5054565;28;20164;-59
2021/05/09 03:26:33;;;;;;;2.40;2.20;;;12.00;99.90;;;;;;5053862;28;20724;-59
2021/05/09 03:28:58;;;;;;;2.80;2.27;;;12.10;99.90;;;;;;5054173;28;20412;-59
2021/05/09 03:31:24;;;;;;;2.50;2.30;;;12.00;99.90;;;;;;5053727;28;20255;-59
2021/05/09 03:33:49;;;;;;;3.00;2.20;;;12.00;99.90;;;;;;5053873;28;20201;-59
2021/05/09 03:36:15;;;;;;;2.50;2.30;;;11.90;99.90;;;;;;5054377;28;20504;-59
2021/05/09 03:38:41;;;;;;;2.10;1.93;;;12.00;99.90;;;;;;5053658;28;20236;-58
2021/05/09 03:41:06;;;;;;;2.60;2.20;;;12.00;99.90;;;;;;5053624;28;20214;-58
2021/05/09 03:43:32;;;;;;;3.40;2.27;;;11.90;99.90;;;;;;5035580;28;20284;-58
2021/05/09 03:45:57;;;;;;;2.70;2.50;;;11.80;99.90;;;;;;5053020;28;20539;-58
2021/05/09 03:48:23;;;;;;;2.40;2.20;;;11.80;99.90;;;;;;5052971;28;20273;-57
2021/05/09 03:50:48;;;;;;;3.67;2.47;;;11.80;99.90;;;;;;5053393;28;20198;-59
2021/05/09 03:53:15;;;;;;;2.30;2.20;;;11.80;99.90;;;;;;5053473;28;20696;-58
2021/05/09 03:55:41;;;;;;;2.60;1.97;;;11.80;99.90;;;;;;5053702;28;20182;-59
2021/05/09 03:58:06;;;;;;;2.73;2.17;;;11.80;99.90;;;;;;5053261;28;20544;-59
2021/05/09 04:00:32;;;;;;;2.57;2.37;;;11.80;99.90;;;;;;5053335;28;20191;-59
2021/05/09 04:02:58;;;;;;;4.07;2.83;;;11.80;99.90;;;;;;5035465;28;20572;-61
2021/05/09 04:05:23;;;;;;;2.73;2.47;;;11.80;99.90;;;;;;5053869;28;20249;-58
2021/05/09 04:07:49;;;;;;;2.40;2.00;;;11.80;99.90;;;;;;5053342;28;20201;-56
2021/05/09 04:10:15;;;;;;;2.40;2.20;;;11.70;99.90;;;;;;5053042;28;20247;-59
2021/05/09 04:12:40;;;;;;;2.63;2.43;;;11.70;99.90;;;;;;5052893;28;20174;-59
2021/05/09 04:15:06;;;;;;;3.00;2.33;;;11.80;99.90;;;;;;5052873;28;20210;-59
2021/05/09 04:17:32;;;;;;;5.57;2.70;;;11.90;99.90;;;;;;5052429;28;20170;-59
2021/05/09 04:19:58;;;;;;;2.63;1.93;;;12.00;99.90;;;;;;5052946;28;20445;-58
2021/05/09 04:22:23;;;;;;;2.10;1.90;;;12.10;99.90;;;;;;5053361;28;20637;-58
2021/05/09 04:24:49;;;;;;;3.00;2.10;;;12.00;99.90;;;;;;5053067;28;20166;-59
2021/05/09 04:27:15;;;;;;;5.97;3.60;;;12.00;99.90;;;;;;5052985;28;20171;-59
2021/05/09 04:29:40;;;;;;;5.03;4.43;;;12.10;99.90;;;;;;5053559;28;20177;-59
2021/05/09 04:32:06;;;;;;;5.10;3.63;;;12.10;99.90;;;;;;5052992;28;20216;-59
2021/05/09 04:34:32;;;;;;;4.80;3.43;;;12.10;99.90;;;;;;5053219;28;20223;-58
2021/05/09 04:36:57;;;;;;;4.23;3.13;;;12.10;99.90;;;;;;5052953;28;20816;-58
2021/05/09 04:39:23;;;;;;;6.30;2.80;;;12.10;99.90;;;;;;5052821;28;20224;-58
2021/05/09 04:41:49;;;;;;;3.10;2.43;;;12.20;99.90;;;;;;5052651;28;20252;-57
2021/05/09 04:44:14;;;;;;;3.03;2.47;;;12.30;99.90;;;;;;5053220;28;20176;-59
2021/05/09 04:46:40;;;;;;;5.37;2.57;;;12.30;99.90;;;;;;5053043;28;20201;-59
2021/05/09 04:49:06;;;;;;;2.80;2.50;;;12.40;99.90;;;;;;5053336;28;20577;-59
2021/05/09 04:51:32;;;;;;;3.47;2.80;;;12.40;99.90;;;;;;5053780;28;20432;-59
2021/05/09 04:53:58;;;;;;;2.53;2.33;;;12.40;99.90;;;;;;5053141;28;20182;-58
2021/05/09 04:56:24;;;;;;;3.07;2.77;;;12.40;99.90;;;;;;5053432;28;20897;-59
2021/05/09 04:58:49;;;;;;;4.63;3.20;;;12.40;99.90;;;;;;5052418;28;20235;-59
2021/05/09 05:01:15;;;;;;;3.30;3.00;;;12.50;99.90;;;;;;5053591;28;20182;-58
2021/05/09 05:03:43;;;;;;;4.13;3.13;;;12.60;99.90;;;;;;5041561;28;20241;-58
2021/05/09 05:06:09;;;;;;;3.37;3.03;;;12.70;99.90;;;;;;5033329;28;20515;-59
2021/05/09 05:08:34;;;;;;;3.43;3.00;;;12.70;99.90;;;;;;5033359;28;20776;-59
2021/05/09 05:11:02;;;;;;;3.20;3.00;;;12.70;99.90;;;;;;5041819;28;20286;-59
2021/05/09 05:13:31;;;;;;;3.03;2.73;;;12.80;99.90;;;;;;5052698;28;20293;-57
2021/05/09 05:15:58;;;;;;;3.93;2.97;;;12.80;99.90;;;;;;5052827;28;20801;-58
2021/05/09 05:18:25;;;;;;;4.00;2.50;;;12.90;99.90;;;;;;5053175;28;20481;-58
2021/05/09 05:20:52;;;;;;;4.33;3.10;;;12.90;99.90;;;;;;5053308;28;20423;-59
2021/05/09 05:23:17;;;;;;;4.50;3.17;;;12.90;99.90;;;;;;5053060;28;20457;-56
2021/05/09 05:25:44;;;;;;;4.30;3.57;;;12.90;99.90;;;;;;5052888;28;20909;-58
2021/05/09 05:28:10;;;;;;;3.57;3.27;;;12.90;99.90;;;;;;5052212;28;20191;-59
2021/05/09 05:30:36;;;;;;;3.03;2.73;;;13.00;99.90;;;;;;5056030;28;20422;-59
2021/05/09 05:33:02;;;;;;;3.13;2.80;;;13.20;99.90;;;;;;5055973;28;20484;-59
2021/05/09 05:35:28;;;;;;;2.53;2.30;;;13.30;99.90;;;;;;5056322;28;20413;-59
2021/05/09 05:37:55;;;;;;;2.37;2.17;;;13.50;99.90;;;;;;5056001;28;20457;-58
2021/05/09 05:40:24;;;;;;;2.07;1.87;;;13.60;99.90;;;;;;5056114;28;20222;-59
2021/05/09 05:42:50;;;;;;;5.50;2.23;;;13.70;99.90;;;;;;5055602;28;20382;-59
2021/05/09 05:45:16;;;;;;;3.00;2.70;;;13.80;99.90;;;;;;5055103;28;20402;-59
2021/05/09 05:47:42;;;;;;;2.87;2.57;;;13.70;99.90;;;;;;5055931;28;20769;-58
2021/05/09 05:50:09;;;;;;;2.80;2.47;;;13.80;99.90;;;;;;5056114;28;20401;-56
2021/05/09 05:52:35;;;;;;;2.43;2.23;;;13.80;99.90;;;;;;5055497;28;20163;-60
2021/05/09 05:55:00;;;;;;;2.50;2.30;;;13.90;99.90;;;;;;5055591;28;20457;-59
2021/05/09 05:57:26;;;;;;;2.03;1.93;;;14.00;99.90;;;;;;5055576;28;20561;-57
2021/05/09 05:59:52;;;;;;;2.40;2.20;;;14.10;99.90;;;;;;5055461;28;20191;-59
2021/05/09 06:02:18;;;;;;;2.77;2.40;;;14.20;99.90;;;;;;5055584;28;20187;-60
2021/05/09 06:04:44;;;;;;;2.27;2.07;;;14.40;99.90;;;;;;5049450;28;20188;-59
2021/05/09 06:07:12;;;;;;;2.60;2.40;;;14.60;99.90;;;;;;5044306;28;20451;-57
2021/05/09 06:09:39;;;;;;;3.63;2.30;;;14.70;99.90;;;;;;5034868;28;20177;-59
2021/05/09 06:12:06;;;;;;;2.20;2.00;;;14.90;99.90;;;;;;5046868;28;20840;-59
2021/05/09 06:14:31;;;;;;;3.00;2.40;;;15.00;99.90;;;;;;5055518;28;20407;-59
2021/05/09 06:16:57;;;;;;;2.67;2.47;;;15.10;99.90;;;;;;5055065;28;20395;-59
2021/05/09 06:19:22;;;;;;;2.63;2.30;;;15.30;99.90;;;;;;5055438;28;20211;-60
2021/05/09 06:21:48;;;;;;;3.20;2.70;;;15.40;99.90;;;;;;5055647;28;20651;-60
2021/05/09 06:24:14;;;;;;;3.67;2.83;;;15.50;99.90;;;;;;5055706;28;20170;-58
2021/05/09 06:26:40;;;;;;;2.97;2.60;;;15.60;99.90;;;;;;5055371;28;20243;-59
2021/05/09 06:29:06;;;;;;;2.80;2.60;;;15.60;99.90;;;;;;5054714;28;20484;-58
2021/05/09 06:31:32;;;;;;;3.03;2.70;;;15.70;99.90;;;;;;5054863;28;20229;-57
2021/05/09 06:33:57;;;;;;;2.83;2.50;;;15.80;99.90;;;;;;5052828;28;20195;-59
2021/05/09 06:36:23;;;;;;;3.30;3.00;;;16.00;99.90;;;;;;5047439;28;20178;-59
2021/05/09 06:38:49;;;;;;;4.73;2.30;;;16.10;99.90;;;;;;5034790;28;20196;-59
2021/05/09 06:41:15;;;;;;;3.47;3.17;;;16.20;99.90;;;;;;5044980;28;20204;-58
2021/05/09 06:43:40;;;;;;;3.13;2.83;;;16.30;99.90;;;;;;5042662;28;20256;-59
2021/05/09 06:46:06;;;;;;;3.90;3.43;;;16.40;99.90;;;;;;5034660;28;20400;-58
2021/05/09 06:48:32;;;;;;;3.57;3.27;;;16.40;99.90;;;;;;5035065;28;20173;-58
2021/05/09 06:50:58;;;;;;;3.70;3.40;;;16.50;99.90;;;;;;5034937;28;20218;-58
2021/05/09 06:53:24;;;;;;;4.47;4.07;;;16.60;99.90;;;;;;5034702;28;20440;-59
2021/05/09 06:55:50;;;;;;;3.90;3.60;;;16.50;99.90;;;;;;5034638;28;20179;-59
2021/05/09 06:58:19;;;;;;;3.67;3.37;;;16.60;99.90;;;;;;5035922;28;20178;-58
2021/05/09 07:00:45;;;;;;;3.80;3.50;;;16.70;99.90;;;;;;5055491;28;20475;-59
2021/05/09 07:03:10;;;;;;;2.90;2.50;;;16.80;99.90;;;;;;5053912;28;20453;-59
2021/05/09 07:05:36;;;;;;;3.20;2.87;;;17.00;99.90;;;;;;5052901;28;20164;-59
2021/05/09 07:08:03;;;;;;;3.40;3.10;;;17.00;99.90;;;;;;5053535;28;20222;-59
2021/05/09 07:10:34;;;;;;;3.70;3.40;;;17.10;99.90;;;;;;5053089;28;20192;-59
2021/05/09 07:13:00;;;;;;;4.27;3.60;;;17.10;99.90;;;;;;5052174;28;20419;-57
2021/05/09 07:18:04;;;;;;;4.50;3.30;;;17.20;99.90;;;;;;5037272;28;20420;-57
2021/05/09 07:20:32;;;;;;;3.27;2.57;;;17.30;99.90;;;;;;5038532;28;20517;-58
2021/05/09 07:22:58;;;;;;;5.57;2.70;;;17.40;99.90;;;;;;5055252;28;20540;-59
2021/05/09 07:25:24;;;;;;;4.90;3.03;;;17.50;99.90;;;;;;5073420;28;20416;-57
2021/05/09 07:27:50;;;;;;;3.50;2.93;;;17.70;99.90;;;;;;5072787;28;20412;-56
2021/05/09 07:30:16;;;;;;;9.70;3.27;;;17.70;99.90;;;;;;5073744;28;20219;-58
2021/05/09 07:32:41;;;;;;;3.70;2.80;;;17.70;99.90;;;;;;5073556;28;20180;-58
2021/05/09 07:35:07;;;;;;;3.90;2.63;;;17.80;99.90;;;;;;5073951;28;20457;-57
2021/05/09 07:37:33;;;;;;;3.50;3.00;;;18.00;99.90;;;;;;5069768;28;20304;-58
2021/05/09 07:39:58;;;;;;;4.13;3.33;;;18.00;99.90;;;;;;5050625;28;20976;-58
2021/05/09 07:42:24;;;;;;;3.10;2.80;;;18.10;99.90;;;;;;5052375;28;20206;-56
2021/05/09 07:44:54;;;;;;;6.43;3.30;;;18.20;99.90;;;;;;5053801;28;20198;-57
2021/05/09 07:47:19;;;;;;;7.17;2.80;;;18.20;99.90;;;;;;5072672;28;20665;-57
2021/05/09 07:49:45;;;;;;;3.50;2.80;;;18.40;99.90;;;;;;5071983;28;20409;-57
2021/05/09 07:52:11;;;;;;;2.93;2.43;;;18.60;99.90;;;;;;5054843;28;20236;-59
2021/05/09 07:54:36;;;;;;;3.23;2.63;;;18.70;99.90;;;;;;5053491;28;20166;-57
2021/05/09 07:57:02;;;;;;;3.77;2.67;;;18.80;99.90;;;;;;5053041;28;20174;-58
2021/05/09 07:59:29;;;;;;;3.03;2.50;;;18.90;99.90;;;;;;5053083;28;20194;-59
2021/05/09 08:01:54;;;;;;;2.90;2.60;;;19.10;99.90;;;;;;5052720;28;20205;-58
2021/05/09 08:04:20;;;;;;;3.43;2.60;;;19.30;99.80;;;;;;5051846;28;20413;-57
2021/05/09 08:06:45;;;;;;;3.50;2.50;;;19.40;99.60;;;;;;5051510;28;20181;-57
2021/05/09 08:09:11;;;;;;;2.67;2.07;;;19.50;99.60;;;;;;5053097;28;20165;-55
2021/05/09 08:11:37;;;;;;;5.07;2.70;;;19.60;98.90;;;;;;5052999;28;20220;-58
2021/05/09 08:14:02;;;;;;;2.57;2.37;;;19.80;98.90;;;;;;5052900;28;20657;-56
2021/05/09 08:16:28;;;;;;;5.33;2.97;;;20.00;98.60;;;;;;5052701;28;20179;-57
2021/05/09 08:18:53;;;;;;;4.17;2.50;;;20.20;98.20;;;;;;5048967;28;20190;-54
2021/05/09 08:21:19;;;;;;;2.20;2.00;;;20.30;98.20;;;;;;5052772;28;20264;-55
2021/05/09 08:23:45;;;;;;;2.40;2.20;;;20.40;97.70;;;;;;5053271;28;20170;-57
2021/05/09 08:26:11;;;;;;;2.33;2.10;;;20.60;97.90;;;;;;5056458;28;20169;-57
2021/05/09 08:28:37;;;;;;;3.00;2.20;;;20.70;97.20;;;;;;5071633;28;20189;-57
2021/05/09 08:31:03;;;;;;;3.00;2.27;;;20.80;97.10;;;;;;5071070;28;20432;-56
2021/05/09 08:33:28;;;;;;;1.97;1.67;;;21.00;97.60;;;;;;5072504;28;20192;-57
2021/05/09 08:35:54;;;;;;;2.47;2.00;;;21.10;96.60;;;;;;5072453;28;20404;-58
2021/05/09 08:38:20;;;;;;;2.33;2.03;;;21.10;97.20;;;;;;5068635;28;20259;-57
2021/05/09 08:40:46;;;;;;;2.90;1.90;;;21.10;95.90;;;;;;5066662;28;20214;-57
2021/05/09 08:43:12;;;;;;;2.40;2.00;;;21.10;96.30;;;;;;5051755;28;20413;-59
2021/05/09 08:45:37;;;;;;;2.77;2.00;;;21.30;97.10;;;;;;5051483;28;20179;-56
2021/05/09 08:48:05;;;;;;;1.70;1.60;;;21.50;95.50;;;;;;5051424;28;20175;-55
2021/05/09 08:50:31;;;;;;;3.60;1.77;;;21.70;94.70;;;;;;5052627;28;20191;-57
2021/05/09 08:52:57;;;;;;;3.07;2.00;;;21.90;93.70;;;;;;5052641;28;20409;-58
2021/05/09 08:55:28;;;;;;;3.10;2.13;;;22.00;93.70;;;;;;5052723;28;20402;-58
2021/05/09 08:57:55;;;;;;;2.20;2.00;;;22.20;93.50;;;;;;5046319;28;20773;-57
2021/05/09 09:00:22;;;;;;;2.17;1.87;;;22.40;93.10;;;;;;5054169;28;20463;-56
2021/05/09 09:02:49;;;;;;;1.50;1.40;;;22.60;93.00;;;;;;5052861;28;20413;-57
2021/05/09 09:05:15;;;;;;;1.47;1.10;;;22.80;92.10;;;;;;5055396;28;20444;-58
2021/05/09 09:07:54;;;;;;;1.43;1.33;;;23.00;90.90;;;;;;5055519;28;20449;-59
2021/05/09 09:10:38;;;;;;;1.80;1.50;;;23.30;92.10;;;;;;5069252;28;20194;-59
2021/05/09 09:13:18;;;;;;;1.70;1.60;;;23.50;92.00;;;;;;5056610;28;20800;-59
2021/05/09 09:15:48;;;;;;;2.17;1.40;;;23.70;91.60;;;;;;5037057;28;20397;-59
2021/05/09 09:18:28;;;;;;;1.70;1.57;;;23.80;91.30;;;;;;5055884;28;20412;-58
2021/05/09 09:20:54;;;;;;;1.70;1.40;;;24.00;90.90;;;;;;5055290;28;20447;-59
2021/05/09 09:23:19;;;;;;;2.47;1.73;;;24.10;90.10;;;;;;5055062;28;20421;-59
2021/05/09 09:25:45;;;;;;;2.00;1.40;;;24.30;90.40;;;;;;5055372;28;20257;-59
2021/05/09 09:28:11;;;;;;;1.97;1.30;;;24.50;90.90;;;;;;5055180;28;20178;-58
2021/05/09 09:30:53;;;;;;;1.30;1.20;;;24.50;86.20;;;;;;5056021;28;20705;-58
2021/05/09 09:33:19;;;;;;;1.80;1.60;;;24.70;86.40;;;;;;5056201;28;20234;-59
2021/05/09 09:35:47;;;;;;;3.40;1.40;;;24.80;83.80;;;;;;5056431;28;20975;-57
2021/05/09 09:38:21;;;;;;;1.60;1.50;;;25.00;81.00;;;;;;5049707;28;20321;-58
2021/05/09 09:41:09;;;;;;;2.40;1.50;;;25.10;80.30;;;;;;5055261;28;20448;-56
2021/05/09 09:43:35;;;;;;;2.33;1.23;;;25.30;80.50;;;;;;5055141;28;20401;-59
2021/05/09 09:46:01;;;;;;;1.50;1.40;;;25.50;80.10;;;;;;5036240;28;20434;-57
2021/05/09 09:48:40;;;;;;;5.07;1.70;;;25.60;80.10;;;;;;5052522;28;20457;-59
2021/05/09 09:51:09;;;;;;;1.50;1.40;;;25.70;80.80;;;;;;5066515;28;20199;-59
2021/05/09 09:53:39;;;;;;;1.80;1.53;;;25.80;79.50;;;;;;5054884;28;20413;-59
2021/05/09 09:56:15;;;;;;;1.90;1.63;;;25.90;78.90;;;;;;5066827;28;20400;-55
2021/05/09 09:59:05;;;;;;;2.10;1.10;;;26.10;77.10;;;;;;5055064;28;21040;-58
2021/05/09 10:01:32;;;;;;;1.30;1.20;;;26.30;73.70;;;;;;5067117;28;20796;-58
2021/05/09 10:04:03;;;;;;;1.67;1.50;;;26.30;70.30;;;;;;5075637;28;20392;-59
2021/05/09 10:06:30;;;;;;;1.67;1.30;;;26.40;69.50;;;;;;5074992;28;20876;-59
2021/05/09 10:08:59;;;;;;;3.00;1.60;;;26.40;67.70;;;;;;5074533;28;20416;-59
2021/05/09 10:11:27;;;;;;;1.97;1.20;;;26.60;68.50;;;;;;5063079;28;20516;-59
2021/05/09 10:13:53;;;;;;;1.70;1.23;;;26.70;68.60;;;;;;5055058;28;20484;-59
2021/05/09 10:16:28;;;;;;;2.20;1.33;;;26.70;67.10;;;;;;5053963;28;20489;-59
2021/05/09 10:18:57;;;;;;;1.37;1.00;;;26.80;64.50;;;;;;5050370;28;20241;-58
2021/05/09 10:21:31;;;;;;;1.30;1.20;;;26.80;62.50;;;;;;5054515;28;20447;-60
2021/05/09 10:24:11;;;;;;;1.83;1.40;;;26.90;65.80;;;;;;5067583;28;20751;-59
2021/05/09 10:27:07;;;;;;;2.03;1.33;;;27.00;64.30;;;;;;5055214;28;20425;-59
2021/05/09 10:29:33;;;;;;;1.20;1.07;;;27.10;64.70;;;;;;5053562;28;20409;-60
2021/05/09 10:32:00;;;;;;;1.33;1.20;;;27.20;65.20;;;;;;5053600;28;20437;-60
2021/05/09 10:34:57;;;;;;;1.57;1.30;;;27.50;60.90;;;;;;5054938;28;20495;-58
2021/05/09 10:40:23;;;;;;;1.70;1.60;;;27.50;60.80;;;;;;5054687;28;20448;-59
2021/05/09 10:43:11;;;;;;;2.63;1.30;;;27.60;57.80;;;;;;5055103;28;20754;-57
2021/05/09 10:45:40;;;;;;;1.73;1.30;;;27.70;56.40;;;;;;5043781;28;20417;-57
2021/05/09 10:51:02;;;;;;;1.30;1.20;;;28.10;55.80;;;;;;5049577;28;20437;-57
2021/05/09 10:53:34;;;;;;;1.50;1.40;;;28.20;54.50;;;;;;5059556;28;20973;-57
2021/05/09 10:56:08;;;;;;;1.70;1.10;;;28.40;53.60;;;;;;5054800;28;20420;-58
2021/05/09 10:58:45;;;;;;;2.17;1.80;;;29.10;54.20;;;;;;5054088;28;20424;-54
2021/05/09 11:01:13;;;;;;;1.00;0.90;;;29.40;50.80;;;;;;5054475;28;20461;-56
2021/05/09 11:03:40;;;;;;;2.90;1.30;;;29.60;52.20;;;;;;5053926;28;20406;-58
2021/05/09 11:06:24;;;;;;;1.37;1.27;;;29.80;50.00;;;;;;5052732;28;20496;-57
2021/05/09 11:08:56;;;;;;;1.47;1.10;;;30.00;49.10;;;;;;5052087;28;20409;-58
2021/05/09 11:11:45;;;;;;;1.73;1.30;;;29.80;49.40;;;;;;5053558;28;20532;-57
2021/05/09 11:14:11;;;;;;;1.87;1.40;;;29.90;49.50;;;;;;5044399;28;20495;-57
2021/05/09 11:16:37;;;;;;;1.70;1.17;;;30.70;47.70;;;;;;5053353;28;20508;-58
2021/05/09 11:19:15;;;;;;;2.83;1.10;;;31.50;47.50;;;;;;5039532;28;20473;-57
2021/05/09 11:21:49;;;;;;;2.33;1.20;;;33.00;43.60;;;;;;5060066;28;20951;-58
2021/05/09 11:24:26;;;;;;;1.30;1.00;;;33.00;44.10;;;;;;5048697;28;20396;-58
2021/05/09 11:26:56;;;;;;;2.50;1.30;;;33.20;41.00;;;;;;5053175;28;20438;-58
2021/05/09 11:29:29;;;;;;;2.00;1.00;;;33.90;42.20;;;;;;5061297;28;20460;-59
2021/05/09 11:32:05;;;;;;;2.80;0.70;;;34.40;40.10;;;;;;5053839;28;20793;-59
2021/05/09 11:34:31;;;;;;;1.67;0.80;;;34.50;38.60;;;;;;5053310;28;20882;-58
2021/05/09 11:36:58;;;;;;;1.83;1.00;;;33.70;38.70;;;;;;5051762;28;20447;-58
2021/05/09 11:39:39;;;;;;;2.00;1.07;;;34.20;41.00;;;;;;5052698;28;20343;-58
2021/05/09 11:42:13;;;;;;;2.03;1.00;;;36.10;36.20;;;;;;5052935;28;20814;-58
2021/05/09 11:44:47;;;;;;;1.63;0.90;;;35.40;35.20;;;;;;5053708;28;20401;-59
2021/05/09 11:47:24;;;;;;;0.87;0.80;;;34.90;35.30;;;;;;5053064;28;20448;-57
2021/05/09 11:49:51;;;;;;;2.33;1.10;;;35.90;35.00;;;;;;5052856;28;20424;-58
2021/05/09 11:52:22;;;;;;;2.47;1.00;;;37.40;36.20;;;;;;5052113;28;20963;-59
2021/05/09 11:54:56;;;;;;;4.13;0.90;;;37.40;33.90;;;;;;5053484;28;20534;-59
2021/05/09 11:57:23;;;;;;;1.30;1.20;;;37.60;34.00;;;;;;5046910;28;20421;-59
2021/05/09 11:59:51;;;;;;;1.77;1.00;;;37.20;32.60;;;;;;5057050;28;20635;-59
2021/05/09 12:02:17;;;;;;;1.50;1.10;;;37.70;32.90;;;;;;5052148;28;20888;-59
2021/05/09 12:04:58;;;;;;;1.77;0.80;;;37.80;31.20;;;;;;5053443;28;20436;-59
2021/05/09 12:07:29;;;;;;;1.43;0.90;;;37.20;31.60;;;;;;5053183;28;20642;-58
2021/05/09 12:10:06;;;;;;;0.87;0.80;;;38.00;32.10;;;;;;5053431;28;20460;-59
2021/05/09 12:12:34;;;;;;;2.50;1.13;;;37.60;30.80;;;;;;5040711;28;20400;-59
2021/05/09 12:15:12;;;;;;;2.30;0.80;;;36.50;33.30;;;;;;5051924;28;20417;-59
2021/05/09 12:17:55;;;;;;;1.00;0.90;;;36.10;33.90;;;;;;5045476;28;20496;-58
2021/05/09 12:20:36;;;;;;;2.33;1.63;;;36.50;32.00;;;;;;5062592;28;20940;-56
2021/05/09 12:23:07;;;;;;;1.10;0.93;;;37.40;32.30;;;;;;5045890;28;20435;-58
2021/05/09 12:25:40;;;;;;;2.03;1.57;;;37.70;31.30;;;;;;5053170;28;20802;-57
2021/05/09 12:28:18;;;;;;;1.23;1.10;;;38.40;31.00;;;;;;5052849;28;20417;-59
2021/05/09 12:30:53;;;;;;;2.13;1.30;;;39.20;30.00;;;;;;5051524;28;20464;-59
2021/05/09 12:33:32;;;;;;;3.17;1.67;;;39.80;30.00;;;;;;5051415;28;20408;-59
2021/05/09 12:35:59;;;;;;;2.47;0.90;;;38.30;29.70;;;;;;5052721;28;20500;-59
2021/05/09 12:38:32;;;;;;;3.27;1.17;;;39.60;29.40;;;;;;5053421;28;20897;-59
2021/05/09 12:41:10;;;;;;;3.20;0.93;;;39.00;29.10;;;;;;5056694;28;20452;-59
2021/05/09 12:43:52;;;;;;;2.00;1.57;;;40.00;28.90;;;;;;5056466;28;20794;-59
2021/05/09 12:46:38;;;;;;;2.53;1.23;;;39.90;29.30;;;;;;5055446;28;20413;-57
2021/05/09 12:49:07;;;;;;;2.00;0.90;;;40.10;28.60;;;;;;5077447;22;20865;-56
2021/05/09 12:51:33;;;;;;;1.90;0.93;;;39.00;29.20;;;;;;5076491;28;20815;-53
2021/05/09 12:53:58;;;;;;;2.70;1.80;;;38.90;30.00;;;;;;5076817;28;20408;-54
2021/05/09 12:56:32;;;;;;;1.57;1.07;;;36.90;30.50;;;;;;5076928;28;20162;-55
2021/05/09 12:58:59;;;;;;;1.00;0.90;;;37.40;30.50;;;;;;5070777;28;20186;-54
2021/05/09 13:01:25;;;;;;;1.07;0.97;;;37.70;29.30;;;;;;5056813;28;20901;-53